Startpagina
METAR-TAF:

METAR-TAF

Vliegvelden :

Deer Park Airport

Deer Park, Washington, Verenigde Staten

breedte: 47-58-27N, lengte: 117-25-42W, hoogte: 672 m

Actueel weer

Dit bericht is 47 minuten geleden gemaakt, om 22:53 UTC
Wind 5 kt uit het westzuidwesten
Temperatuur 4°C
Vochtigheid 65%
Druk 1024 hPa
Zicht: 16.1 km
Onbewolkt

METAR: KDEW 142253Z AUTO 24005KT 10SM CLR 04/M02 A3024 RMK AO2 SLP262 T00441017

Tijdstip: 15:40 (23:40 UTC)


TAF: ontbreekt

Waarnemingen en weersverwachtingen van meer dan 4000 vliegvelden (METAR en TAF).

De beschikbare stations zijn de gele en rode punten op de kaart.

Ga met uw muis naar het station om de naam te zien.

Klik dan om waarnemingen en weersverwachtingen te zien.

kaart wijzigen: klik op de groene knoppen met een zwart kruis om in te zoomen, op de groene knop met een streepje om uit te zoomen of op de groene pijlen voor aangrenzende kaarten.


METAR-TAF: